Time;durP1;ratioP1;P1;durP2;ratioP2;P2;SDS_P1;SDS_P2;PMS_P1;PMS_P2;Temp;Humidity;BMP_temperature;BMP_pressure;BME280_temperature;BME280_humidity;BME280_pressure;Samples;Min_cycle;Max_cycle;Signal;HPM_P1;HPM_P2
2021/03/08 00:00:17;;;;;;;;;30.70;25.70;;;;;1.84;69.64;100509.00;471367;116;383330;-77
2021/03/08 00:01:22;;;;;;;;;26.70;23.10;;;;;1.83;69.86;100509.91;471190;116;384684;-76
2021/03/08 00:02:26;;;;;;;;;30.50;24.60;;;;;1.85;69.82;100505.45;471376;116;383039;-77
2021/03/08 00:03:30;;;;;;;;;29.60;24.90;;;;;1.87;69.77;100514.13;471659;116;383388;-76
2021/03/08 00:04:34;;;;;;;;;28.40;22.60;;;;;1.87;69.89;100508.02;471682;116;383401;-74
2021/03/08 00:05:40;;;;;;;;;32.60;26.70;;;;;1.88;69.81;100509.73;471632;116;384162;-79
2021/03/08 00:06:46;;;;;;;;;29.30;23.10;;;;;1.88;69.80;100501.87;471039;116;384347;-77
2021/03/08 00:07:49;;;;;;;;;27.00;25.60;;;;;1.84;70.01;100501.14;471587;116;382605;-75
2021/03/08 00:08:54;;;;;;;;;27.90;23.30;;;;;1.83;70.24;100502.05;471593;116;382671;-76
2021/03/08 00:09:58;;;;;;;;;30.50;23.70;;;;;1.84;70.14;100498.52;471307;116;383410;-78
2021/03/08 00:11:02;;;;;;;;;30.70;25.50;;;;;1.81;70.44;100496.02;471534;116;389913;-79
2021/03/08 00:12:07;;;;;;;;;30.40;23.20;;;;;1.79;70.44;100495.21;471169;116;383114;-82
2021/03/08 00:13:10;;;;;;;;;32.70;28.60;;;;;1.76;70.51;100490.09;471258;116;384525;-80
2021/03/08 00:14:14;;;;;;;;;31.50;26.40;;;;;1.76;70.51;100490.09;471554;116;383826;-80
2021/03/08 00:15:19;;;;;;;;;27.80;25.40;;;;;1.82;70.60;100489.84;471582;116;382444;-79
2021/03/08 00:16:23;;;;;;;;;27.60;23.60;;;;;1.82;70.26;100492.46;470476;116;384115;-81
2021/03/08 00:17:27;;;;;;;;;26.90;25.60;;;;;1.83;70.49;100490.70;471570;116;389241;-78
2021/03/08 00:18:31;;;;;;;;;32.30;27.00;;;;;1.84;70.26;100488.03;471516;116;391688;-75
2021/03/08 00:19:35;;;;;;;;;30.10;25.80;;;;;1.80;70.36;100485.58;471504;116;384503;-77
2021/03/08 00:20:40;;;;;;;;;32.70;24.80;;;;;1.79;70.72;100478.63;471235;116;391476;-78
2021/03/08 00:21:46;;;;;;;;;34.40;25.80;;;;;1.78;70.76;100474.31;471581;116;385130;-78
2021/03/08 00:22:50;;;;;;;;;26.30;25.90;;;;;1.80;70.94;100475.09;471046;116;383413;-77
2021/03/08 00:23:53;;;;;;;;;34.90;28.30;;;;;1.80;70.94;100475.09;471463;116;392788;-77
2021/03/08 00:24:57;;;;;;;;;19.80;18.20;;;;;1.79;70.82;100473.38;471604;116;380200;-79
2021/03/08 00:26:01;;;;;;;;;28.80;25.20;;;;;1.79;70.82;100473.38;471485;116;390199;-77
2021/03/08 00:27:09;;;;;;;;;29.00;26.60;;;;;1.78;71.09;100467.31;471484;116;384535;-79
2021/03/08 00:28:13;;;;;;;;;25.50;23.00;;;;;1.78;71.09;100467.31;471077;115;383908;-77
2021/03/08 00:29:16;;;;;;;;;27.50;26.10;;;;;1.78;70.91;100462.06;471538;116;384533;-78
2021/03/08 00:30:25;;;;;;;;;30.20;24.60;;;;;1.79;71.06;100462.89;471218;116;382962;-78
2021/03/08 00:31:29;;;;;;;;;29.20;24.90;;;;;1.76;70.97;100471.74;471267;116;390629;-77
2021/03/08 00:32:33;;;;;;;;;22.70;18.80;;;;;1.80;71.05;100473.33;471558;116;383567;-77
2021/03/08 00:33:37;;;;;;;;;29.70;27.60;;;;;1.76;71.32;100456.02;471499;116;390686;-77
2021/03/08 00:34:41;;;;;;;;;30.10;23.60;;;;;1.76;71.32;100456.02;471025;116;390126;-78
2021/03/08 00:35:45;;;;;;;;;30.60;25.20;;;;;1.79;71.27;100458.50;471459;116;390165;-78
2021/03/08 00:36:51;;;;;;;;;29.40;24.80;;;;;1.78;71.48;100456.82;470462;116;383048;-78
2021/03/08 00:37:55;;;;;;;;;26.90;22.30;;;;;1.77;71.66;100454.25;471523;116;382852;-77
2021/03/08 00:38:58;;;;;;;;;30.20;25.80;;;;;1.72;71.51;100453.60;471603;116;382982;-77
2021/03/08 00:40:03;;;;;;;;;32.50;27.60;;;;;1.74;71.52;100444.75;471621;116;383575;-76
2021/03/08 00:41:07;;;;;;;;;28.30;24.80;;;;;1.74;71.52;100444.75;471575;116;383164;-76
2021/03/08 00:42:11;;;;;;;;;29.00;24.60;;;;;1.66;72.53;100443.38;471903;116;383462;-75
2021/03/08 00:43:15;;;;;;;;;26.80;24.70;;;;;1.50;72.36;100419.56;471797;116;384337;-75
2021/03/08 00:44:19;;;;;;;;;30.30;25.70;;;;;1.50;72.36;100419.56;471889;116;384176;-76
2021/03/08 00:45:23;;;;;;;;;32.30;26.70;;;;;1.63;72.61;100440.87;471712;116;383190;-76
2021/03/08 00:46:29;;;;;;;;;28.90;25.80;;;;;1.60;72.90;100436.59;470717;116;384455;-75
2021/03/08 00:47:33;;;;;;;;;25.10;24.30;;;;;1.60;72.90;100436.59;471667;116;383530;-76
2021/03/08 00:48:37;;;;;;;;;30.80;24.80;;;;;1.66;72.73;100440.75;471756;116;383300;-75
2021/03/08 00:49:41;;;;;;;;;27.50;21.00;;;;;1.64;72.72;100432.94;471570;116;383427;-76
2021/03/08 00:50:46;;;;;;;;;25.80;22.10;;;;;1.63;72.86;100428.59;471225;116;382255;-78
2021/03/08 00:51:52;;;;;;;;;26.00;23.00;;;;;1.69;72.42;100430.99;471099;116;383295;-75
2021/03/08 00:52:57;;;;;;;;;25.10;20.90;;;;;1.69;72.42;100430.99;471341;116;382803;-73
2021/03/08 00:54:03;;;;;;;;;28.60;24.30;;;;;1.69;72.59;100427.52;471018;116;384510;-74
2021/03/08 00:55:10;;;;;;;;;29.20;25.80;;;;;1.68;72.34;100426.66;470977;116;383152;-75
2021/03/08 00:56:15;;;;;;;;;32.10;30.10;;;;;1.65;72.77;100426.78;471269;116;384982;-75
2021/03/08 00:57:19;;;;;;;;;33.30;29.00;;;;;1.65;72.77;100426.78;471738;115;385476;-77
2021/03/08 00:58:24;;;;;;;;;32.90;23.50;;;;;1.63;73.04;100423.36;471475;115;385129;-75
2021/03/08 00:59:28;;;;;;;;;31.50;25.30;;;;;1.65;72.82;100420.69;472034;115;383781;-76
2021/03/08 01:00:34;;;;;;;;;23.00;21.10;;;;;1.65;72.82;100420.69;471265;115;382243;-75
2021/03/08 01:01:40;;;;;;;;;29.20;24.10;;;;;1.68;73.10;100421.41;471421;115;383647;-75
2021/03/08 01:02:45;;;;;;;;;29.20;26.20;;;;;1.69;72.78;100424.89;472002;115;391730;-76
2021/03/08 01:03:52;;;;;;;;;26.00;22.50;;;;;1.69;72.78;100424.89;471484;115;383427;-76
2021/03/08 01:04:58;;;;;;;;;29.70;23.90;;;;;1.63;73.36;100425.15;471486;115;384863;-75
2021/03/08 01:06:02;;;;;;;;;28.90;23.20;;;;;1.63;73.36;100425.15;472010;115;382074;-77
2021/03/08 01:07:08;;;;;;;;;24.10;21.90;;;;;1.68;73.19;100417.94;471142;115;382588;-76
2021/03/08 01:08:12;;;;;;;;;27.80;24.00;;;;;1.72;72.71;100420.37;471938;115;383902;-76
2021/03/08 01:09:18;;;;;;;;;24.40;21.50;;;;;1.71;72.90;100418.66;471479;115;384953;-76
2021/03/08 01:10:24;;;;;;;;;21.70;20.10;;;;;1.70;72.75;100416.95;471723;115;387216;-78
2021/03/08 01:11:28;;;;;;;;;27.60;24.60;;;;;1.66;73.37;100415.36;471159;115;383211;-78
2021/03/08 01:12:34;;;;;;;;;25.30;22.40;;;;;1.66;73.21;100414.53;470080;115;383310;-77
2021/03/08 01:13:38;;;;;;;;;28.70;23.60;;;;;1.68;73.24;100410.92;471926;115;383913;-78
2021/03/08 01:14:42;;;;;;;;;42.10;29.40;;;;;1.70;73.23;100411.70;471967;115;386665;-78
2021/03/08 01:15:46;;;;;;;;;31.70;26.80;;;;;1.68;73.04;100408.30;471723;115;384523;-77
2021/03/08 01:16:51;;;;;;;;;27.20;26.10;;;;;1.68;73.04;100408.30;471743;115;383153;-76
2021/03/08 01:17:54;;;;;;;;;30.10;25.40;;;;;1.68;73.14;100405.68;472011;115;383326;-76
2021/03/08 01:18:58;;;;;;;;;30.70;24.90;;;;;1.72;73.10;100403.78;472004;115;383748;-78
2021/03/08 01:20:03;;;;;;;;;29.10;27.10;;;;;1.70;73.45;100400.36;471972;115;384485;-76
2021/03/08 01:21:07;;;;;;;;;34.00;27.60;;;;;1.70;73.45;100400.36;471254;115;384944;-76
2021/03/08 01:22:11;;;;;;;;;27.30;26.00;;;;;1.66;73.81;100401.43;472046;115;383389;-79
2021/03/08 01:23:15;;;;;;;;;29.90;25.20;;;;;1.66;73.81;100401.43;472020;115;383300;-78
2021/03/08 01:24:19;;;;;;;;;27.60;25.50;;;;;1.67;73.63;100390.86;471694;115;389926;-78
2021/03/08 01:25:24;;;;;;;;;30.80;28.80;;;;;1.70;73.81;100395.97;471948;115;385564;-78
2021/03/08 01:26:29;;;;;;;;;25.10;22.40;;;;;1.66;74.02;100394.39;471000;115;383036;-79
2021/03/08 01:27:33;;;;;;;;;24.80;18.20;;;;;1.66;74.02;100394.39;472034;115;382792;-78
2021/03/08 01:28:37;;;;;;;;;25.70;22.60;;;;;1.71;73.93;100388.96;472108;115;381095;-78
2021/03/08 01:29:43;;;;;;;;;31.20;25.50;;;;;1.70;73.53;100390.73;471466;115;383710;-78
2021/03/08 01:30:51;;;;;;;;;24.40;20.50;;;;;1.67;73.85;100388.23;471417;115;383458;-75
2021/03/08 01:31:54;;;;;;;;;31.80;21.40;;;;;1.67;73.85;100388.23;471984;115;386454;-78
2021/03/08 01:32:59;;;;;;;;;28.60;25.40;;;;;1.68;74.18;100396.96;472004;115;383309;-77
2021/03/08 01:34:03;;;;;;;;;25.40;22.30;;;;;1.70;73.92;100388.11;472018;115;382966;-76
2021/03/08 01:35:08;;;;;;;;;26.80;24.40;;;;;1.67;74.20;100395.25;471677;115;388354;-74
2021/03/08 01:36:13;;;;;;;;;29.70;24.70;;;;;1.65;74.21;100391.84;471694;115;384906;-76
2021/03/08 01:37:17;;;;;;;;;27.70;23.10;;;;;1.65;74.21;100391.84;471985;115;384377;-75
2021/03/08 01:38:21;;;;;;;;;21.90;18.70;;;;;1.70;74.18;100390.73;472030;115;380803;-74
2021/03/08 01:39:25;;;;;;;;;31.20;26.90;;;;;1.71;74.17;100384.58;471888;115;388672;-75
2021/03/08 01:40:32;;;;;;;;;32.60;27.10;;;;;1.70;74.07;100384.62;471754;115;383820;-74
2021/03/08 01:41:35;;;;;;;;;36.30;28.80;;;;;1.70;74.07;100384.62;462096;117;389705;-74
2021/03/08 01:42:40;;;;;;;;;32.60;25.60;;;;;1.70;74.22;100375.00;463102;118;383641;-73
2021/03/08 01:43:44;;;;;;;;;21.20;17.30;;;;;1.70;74.22;100375.00;471720;115;381057;-77
2021/03/08 01:44:48;;;;;;;;;28.00;24.30;;;;;1.57;74.79;100379.91;471976;115;383387;-77
2021/03/08 01:45:52;;;;;;;;;20.60;18.10;;;;;1.60;75.06;100378.92;471732;115;382528;-76
2021/03/08 01:46:56;;;;;;;;;34.40;28.80;;;;;1.62;74.77;100381.50;471655;115;385752;-77
2021/03/08 01:48:00;;;;;;;;;27.20;23.90;;;;;1.65;75.01;100379.60;471975;115;382681;-77
2021/03/08 01:49:05;;;;;;;;;28.80;27.30;;;;;1.65;75.01;100379.60;472039;115;382629;-76
2021/03/08 01:50:13;;;;;;;;;25.90;23.60;;;;;1.63;74.89;100377.97;471456;115;384592;-75
2021/03/08 01:51:17;;;;;;;;;28.60;25.70;;;;;1.65;75.07;100389.23;471801;115;384102;-75
2021/03/08 01:52:21;;;;;;;;;33.60;25.90;;;;;1.63;74.77;100391.90;471894;115;392588;-76
2021/03/08 01:53:27;;;;;;;;;28.80;28.70;;;;;1.68;74.64;100386.48;471909;115;385221;-76
2021/03/08 01:54:31;;;;;;;;;31.00;26.10;;;;;1.68;74.92;100386.48;471560;115;383545;-75
2021/03/08 01:55:35;;;;;;;;;31.20;25.10;;;;;1.68;74.92;100386.48;471951;115;383314;-76
2021/03/08 01:56:40;;;;;;;;;28.90;24.50;;;;;1.66;74.62;100383.91;471099;115;382495;-75
2021/03/08 01:57:44;;;;;;;;;29.60;23.40;;;;;1.62;75.17;100389.36;471831;115;383058;-76
2021/03/08 01:58:48;;;;;;;;;30.20;24.20;;;;;1.62;75.17;100389.36;471739;115;384091;-75
2021/03/08 01:59:52;;;;;;;;;29.10;26.00;;;;;1.60;75.22;100389.41;471863;115;382717;-75
2021/03/08 02:00:56;;;;;;;;;32.60;27.50;;;;;1.62;75.35;100382.35;471200;116;385413;-77
2021/03/08 02:02:00;;;;;;;;;35.30;26.90;;;;;1.46;75.38;100363.80;471060;116;385130;-77
2021/03/08 02:03:04;;;;;;;;;29.20;23.50;;;;;1.46;75.38;100363.80;464551;117;383332;-77
2021/03/08 02:04:08;;;;;;;;;35.60;29.80;;;;;1.57;75.37;100381.67;464905;117;385260;-77
2021/03/08 02:05:14;;;;;;;;;27.50;23.20;;;;;1.55;75.80;100386.14;471584;116;382802;-78
2021/03/08 02:06:20;;;;;;;;;32.50;28.30;;;;;1.54;75.59;100385.28;470770;116;386033;-78
2021/03/08 02:07:24;;;;;;;;;30.80;25.90;;;;;1.55;75.89;100386.14;471608;116;383370;-79
2021/03/08 02:08:28;;;;;;;;;33.70;30.10;;;;;1.56;75.78;100390.48;471530;116;384316;-78
2021/03/08 02:09:32;;;;;;;;;30.00;24.50;;;;;1.60;75.49;100376.30;471574;116;384298;-76
2021/03/08 02:10:37;;;;;;;;;37.00;29.50;;;;;1.60;75.60;100379.78;471250;116;385473;-76
2021/03/08 02:11:41;;;;;;;;;28.40;24.50;;;;;1.60;75.58;100386.78;471334;116;385571;-77
2021/03/08 02:12:58;;;;;;;;;34.50;29.60;;;;;1.61;75.70;100385.87;471443;116;391768;-75
2021/03/08 02:14:37;;;;;;;;;32.10;28.30;;;;;1.61;75.70;100385.87;471082;116;382586;-77
2021/03/08 02:15:46;;;;;;;;;31.70;26.80;;;;;1.65;75.43;100389.23;471249;116;387907;-76
2021/03/08 02:16:56;;;;;;;;;26.40;23.40;;;;;1.61;75.70;100383.26;471130;116;383038;-77
2021/03/08 02:18:04;;;;;;;;;33.50;23.80;;;;;1.61;75.71;100385.87;471050;116;384350;-77
2021/03/08 02:19:12;;;;;;;;;32.70;28.10;;;;;1.62;75.55;100390.22;471056;116;385898;-78
2021/03/08 02:20:58;;;;;;;;;35.50;28.80;;;;;1.62;75.55;100390.22;471237;116;385992;-77
2021/03/08 02:22:14;;;;;;;;;38.70;30.80;;;;;1.63;75.64;100389.28;470910;116;387306;-77
2021/03/08 02:24:11;;;;;;;;;32.30;27.60;;;;;1.62;75.70;100387.59;461704;117;388594;-74
2021/03/08 02:25:23;;;;;;;;;36.30;27.00;;;;;1.62;75.70;100387.59;470523;116;383824;-77
2021/03/08 02:26:34;;;;;;;;;31.90;25.10;;;;;1.60;75.94;100386.78;470994;116;383566;-81
2021/03/08 02:28:08;;;;;;;;;33.00;28.60;;;;;1.60;76.16;100386.78;471095;116;383190;-81
2021/03/08 02:29:56;;;;;;;;;30.40;22.40;;;;;1.60;76.16;100386.78;453983;118;382356;-80
2021/03/08 02:31:00;;;;;;;;;33.00;28.70;;;;;1.59;76.15;100391.20;471041;116;384245;-77
2021/03/08 02:32:06;;;;;;;;;31.30;26.80;;;;;1.59;76.53;100387.73;471609;116;382418;-78
2021/03/08 02:33:10;;;;;;;;;36.40;26.70;;;;;1.60;76.19;100381.55;470954;116;386238;-77
2021/03/08 02:34:17;;;;;;;;;35.20;28.10;;;;;1.60;76.19;100381.55;471220;116;385835;-77
2021/03/08 02:35:23;;;;;;;;;23.70;21.50;;;;;1.59;76.57;100379.86;464094;117;383111;-78
2021/03/08 02:36:29;;;;;;;;;28.70;25.20;;;;;1.58;76.49;100384.25;464601;117;384101;-79
2021/03/08 02:37:36;;;;;;;;;36.80;32.40;;;;;1.55;76.73;100376.52;470968;116;386009;-79
2021/03/08 02:38:42;;;;;;;;;30.50;22.80;;;;;1.60;76.46;100373.68;471001;116;383660;-78
2021/03/08 02:39:48;;;;;;;;;32.60;25.90;;;;;1.61;76.66;100372.77;470944;116;384493;-78
2021/03/08 02:40:56;;;;;;;;;31.40;27.80;;;;;1.61;76.66;100372.77;471020;116;385296;-77
2021/03/08 02:42:01;;;;;;;;;36.40;30.20;;;;;1.65;76.12;100376.98;470886;116;392171;-78
2021/03/08 02:43:07;;;;;;;;;31.30;27.00;;;;;1.59;76.35;100370.23;471256;116;384772;-78
2021/03/08 02:44:11;;;;;;;;;33.20;26.10;;;;;1.61;76.45;100364.91;471039;116;391528;-78
2021/03/08 02:45:16;;;;;;;;;25.40;21.80;;;;;1.55;76.59;100365.17;471310;116;383325;-79
2021/03/08 02:46:24;;;;;;;;;28.10;27.30;;;;;1.58;76.53;100365.05;470710;116;383732;-77
2021/03/08 02:47:30;;;;;;;;;35.40;30.30;;;;;1.55;76.82;100368.66;471137;116;391481;-79
2021/03/08 02:48:35;;;;;;;;;39.30;30.20;;;;;1.57;76.79;100363.33;471212;116;393269;-80
2021/03/08 02:49:39;;;;;;;;;34.80;30.40;;;;;1.57;76.79;100363.33;471235;116;385089;-78
2021/03/08 02:50:43;;;;;;;;;34.00;27.40;;;;;1.57;76.45;100360.70;471246;116;384288;-78
2021/03/08 02:51:49;;;;;;;;;30.40;27.30;;;;;1.57;76.72;100365.95;471565;116;383168;-79
2021/03/08 02:52:55;;;;;;;;;33.20;29.10;;;;;1.49;77.33;100370.68;470989;116;385228;-80
2021/03/08 02:54:00;;;;;;;;;31.30;28.40;;;;;1.48;77.35;100368.96;471072;116;384953;-80
2021/03/08 02:55:06;;;;;;;;;35.70;29.30;;;;;1.48;77.35;100368.96;471315;116;386850;-78
2021/03/08 02:56:13;;;;;;;;;30.90;27.50;;;;;1.52;77.10;100365.30;471022;116;385739;-77
2021/03/08 02:57:18;;;;;;;;;36.00;30.40;;;;;1.52;77.10;100365.30;471077;116;384852;-78
2021/03/08 02:58:22;;;;;;;;;32.70;23.90;;;;;1.47;77.41;100367.25;471317;116;382698;-77
2021/03/08 02:59:26;;;;;;;;;33.50;27.20;;;;;1.47;77.41;100367.25;471604;116;383279;-76
2021/03/08 03:00:32;;;;;;;;;32.50;29.20;;;;;1.49;77.46;100357.58;470957;116;384542;-78
2021/03/08 03:01:36;;;;;;;;;34.30;28.50;;;;;1.51;77.34;100360.97;471562;116;384779;-77
2021/03/08 03:02:40;;;;;;;;;37.30;27.30;;;;;1.53;77.07;100351.30;471182;116;392368;-77
2021/03/08 03:03:46;;;;;;;;;33.30;25.30;;;;;1.53;77.07;100351.30;471496;116;390416;-76
2021/03/08 03:04:50;;;;;;;;;24.20;18.70;;;;;1.50;77.39;100348.80;471029;116;388960;-74
2021/03/08 03:05:55;;;;;;;;;30.00;25.80;;;;;1.48;77.82;100355.86;471563;116;383908;-77
2021/03/08 03:07:00;;;;;;;;;34.30;27.80;;;;;1.49;77.82;100354.95;471280;116;384685;-75
2021/03/08 03:08:05;;;;;;;;;32.20;28.00;;;;;1.49;77.82;100354.95;471120;116;384298;-75
2021/03/08 03:09:10;;;;;;;;;31.90;26.40;;;;;1.50;77.65;100356.67;471277;116;389290;-78
2021/03/08 03:10:15;;;;;;;;;22.20;16.80;;;;;1.50;78.03;100356.67;471278;116;380555;-77
2021/03/08 03:11:19;;;;;;;;;33.20;27.40;;;;;1.54;77.55;100356.45;471360;116;385994;-78
2021/03/08 03:12:23;;;;;;;;;33.40;28.00;;;;;1.54;77.55;100356.45;471646;116;385731;-77
2021/03/08 03:13:27;;;;;;;;;30.10;27.20;;;;;1.41;77.79;100338.69;471252;116;384982;-77
2021/03/08 03:14:31;;;;;;;;;31.40;29.20;;;;;1.52;77.86;100354.83;471625;116;384448;-78
2021/03/08 03:15:36;;;;;;;;;27.60;25.70;;;;;1.52;77.91;100354.83;471604;116;390679;-77
2021/03/08 03:16:41;;;;;;;;;31.80;26.40;;;;;1.50;78.28;100351.42;471111;116;383736;-77
2021/03/08 03:17:45;;;;;;;;;32.00;27.00;;;;;1.52;78.03;100352.20;471668;116;383572;-77
2021/03/08 03:18:50;;;;;;;;;31.10;27.30;;;;;1.52;78.03;100352.20;471596;116;383999;-78
2021/03/08 03:19:53;;;;;;;;;26.00;22.70;;;;;1.54;77.95;100352.98;471031;116;383636;-77
2021/03/08 03:20:58;;;;;;;;;24.40;22.00;;;;;1.54;77.95;100350.36;471789;116;381816;-77
2021/03/08 03:22:02;;;;;;;;;23.40;22.10;;;;;1.49;77.93;100354.95;471730;116;382018;-78
2021/03/08 03:23:06;;;;;;;;;30.50;26.40;;;;;1.54;77.97;100347.73;471400;116;384607;-78
2021/03/08 03:24:11;;;;;;;;;26.20;24.20;;;;;1.54;77.97;100347.73;471439;116;382360;-77
2021/03/08 03:25:18;;;;;;;;;31.40;29.10;;;;;1.49;78.42;100349.71;462451;118;384614;-78
2021/03/08 03:26:22;;;;;;;;;33.20;26.00;;;;;1.49;78.42;100349.71;470649;115;383577;-77
2021/03/08 03:27:26;;;;;;;;;29.00;24.80;;;;;1.48;77.97;100354.09;471662;116;382603;-78
2021/03/08 03:28:30;;;;;;;;;26.00;23.30;;;;;1.49;77.90;100347.09;471431;116;384074;-79
2021/03/08 03:29:34;;;;;;;;;24.10;22.10;;;;;1.51;78.15;100350.48;471711;116;382105;-80
2021/03/08 03:30:39;;;;;;;;;29.30;27.30;;;;;1.48;78.00;100348.00;471475;116;384506;-79
2021/03/08 03:31:44;;;;;;;;;32.70;27.10;;;;;1.45;77.88;100348.13;471682;116;384180;-79
2021/03/08 03:32:48;;;;;;;;;31.50;25.60;;;;;1.46;77.97;100349.84;462400;118;390224;-78
2021/03/08 03:33:51;;;;;;;;;29.20;25.90;;;;;1.44;78.50;100346.41;471199;116;385005;-75
2021/03/08 03:34:56;;;;;;;;;28.70;24.50;;;;;1.44;78.50;100346.41;471388;116;384835;-75
2021/03/08 03:36:00;;;;;;;;;26.10;23.00;;;;;1.48;78.09;100345.37;471685;116;383305;-76
2021/03/08 03:37:04;;;;;;;;;31.10;28.00;;;;;1.47;78.08;100344.52;471621;116;384947;-75
2021/03/08 03:38:07;;;;;;;;;35.00;30.20;;;;;1.49;77.67;100347.09;471658;116;384525;-75
2021/03/08 03:39:12;;;;;;;;;31.00;26.70;;;;;1.49;77.67;100347.09;471647;116;385755;-75
2021/03/08 03:40:17;;;;;;;;;27.40;24.30;;;;;1.46;78.14;100339.36;471382;116;383745;-76
2021/03/08 03:41:20;;;;;;;;;29.10;25.20;;;;;1.48;77.95;100343.61;462395;118;383925;-76
2021/03/08 03:42:25;;;;;;;;;29.30;25.40;;;;;1.48;77.95;100343.61;471190;116;383211;-82
2021/03/08 03:43:29;;;;;;;;;30.00;27.40;;;;;1.48;77.99;100337.52;471391;116;383247;-82
2021/03/08 03:44:33;;;;;;;;;30.30;26.80;;;;;1.48;77.91;100338.37;471644;116;383496;-82
2021/03/08 03:45:37;;;;;;;;;30.50;26.80;;;;;1.48;77.91;100338.37;471322;116;385204;-81
2021/03/08 03:46:42;;;;;;;;;28.00;25.50;;;;;1.47;77.84;100339.28;471394;116;383714;-80
2021/03/08 03:47:47;;;;;;;;;34.40;28.70;;;;;1.44;77.90;100334.17;471658;116;383825;-76
2021/03/08 03:48:50;;;;;;;;;25.00;23.90;;;;;1.47;77.49;100341.90;471435;116;381911;-76
2021/03/08 03:49:54;;;;;;;;;32.40;26.00;;;;;1.47;77.36;100335.80;471683;116;385097;-76
2021/03/08 03:51:00;;;;;;;;;29.60;24.90;;;;;1.51;76.94;100337.38;471076;116;390440;-77
2021/03/08 03:52:05;;;;;;;;;34.00;29.30;;;;;1.48;77.00;100342.76;465575;117;383978;-76
2021/03/08 03:53:08;;;;;;;;;29.50;27.80;;;;;1.48;77.00;100342.76;465744;117;383644;-77
2021/03/08 03:54:13;;;;;;;;;31.00;26.90;;;;;1.45;77.15;100337.65;471663;116;384531;-78
2021/03/08 03:55:18;;;;;;;;;32.00;24.30;;;;;1.46;76.70;100327.11;471643;116;383483;-77
2021/03/08 03:56:23;;;;;;;;;35.50;26.50;;;;;1.46;76.70;100327.11;471385;116;384200;-80
2021/03/08 03:57:27;;;;;;;;;27.90;24.00;;;;;1.44;77.06;100320.20;471359;116;390153;-78
2021/03/08 03:58:33;;;;;;;;;30.40;25.90;;;;;1.44;77.06;100320.20;471515;116;385486;-77
2021/03/08 03:59:42;;;;;;;;;33.10;30.20;;;;;1.44;76.95;100328.93;470989;116;390781;-78
2021/03/08 04:00:50;;;;;;;;;24.30;20.70;;;;;1.45;76.80;100332.41;470929;116;382861;-78
2021/03/08 04:01:59;;;;;;;;;35.30;26.40;;;;;1.45;76.80;100332.41;470979;116;384580;-79
2021/03/08 04:03:05;;;;;;;;;31.00;27.80;;;;;1.48;76.56;100324.41;471070;116;383996;-78
2021/03/08 04:04:12;;;;;;;;;32.50;28.10;;;;;1.48;76.56;100324.41;471057;116;389001;-78
2021/03/08 04:05:18;;;;;;;;;30.90;27.60;;;;;1.50;76.45;100319.98;471050;116;388159;-77
2021/03/08 04:06:23;;;;;;;;;31.30;26.80;;;;;1.44;76.83;100331.55;471095;116;383930;-78
2021/03/08 04:07:27;;;;;;;;;30.80;23.90;;;;;1.40;76.94;100319.52;471416;116;385303;-78
2021/03/08 04:08:31;;;;;;;;;29.20;26.50;;;;;1.40;76.94;100319.52;471622;116;384883;-77
2021/03/08 04:09:35;;;;;;;;;26.30;23.10;;;;;1.37;77.13;100324.03;471473;116;385398;-77
2021/03/08 04:10:40;;;;;;;;;30.80;25.80;;;;;1.39;77.58;100330.05;470505;116;383238;-79
2021/03/08 04:11:44;;;;;;;;;32.60;27.60;;;;;1.39;77.49;100323.05;470440;116;385588;-76
2021/03/08 04:12:50;;;;;;;;;27.50;26.70;;;;;1.43;77.16;100326.39;470713;116;382962;-77
2021/03/08 04:13:54;;;;;;;;;31.30;25.20;;;;;1.44;77.47;100314.97;470197;116;382249;-78
2021/03/08 04:15:03;;;;;;;;;30.50;26.50;;;;;1.44;77.04;100318.45;470644;116;384601;-77
2021/03/08 04:16:08;;;;;;;;;26.70;23.20;;;;;1.44;77.04;100318.45;470252;116;383128;-76
2021/03/08 04:17:11;;;;;;;;;36.50;27.80;;;;;1.50;76.65;100322.59;464348;117;391244;-77
2021/03/08 04:18:15;;;;;;;;;31.70;26.00;;;;;1.50;76.65;100322.59;465154;117;390601;-78
2021/03/08 04:19:21;;;;;;;;;28.20;24.60;;;;;1.45;76.54;100314.06;470791;116;384602;-78
2021/03/08 04:20:28;;;;;;;;;29.50;24.50;;;;;1.53;76.45;100314.61;470148;116;384836;-79
2021/03/08 04:21:35;;;;;;;;;27.70;24.20;;;;;1.56;76.07;100312.67;470236;116;383741;-79
2021/03/08 04:22:38;;;;;;;;;37.20;28.90;;;;;1.56;75.79;100328.40;470180;116;386532;-77
2021/03/08 04:23:42;;;;;;;;;30.50;28.20;;;;;1.56;75.79;100328.40;470812;116;383924;-78
2021/03/08 04:24:46;;;;;;;;;31.70;26.70;;;;;1.56;75.71;100324.95;470759;116;383544;-78
2021/03/08 04:25:53;;;;;;;;;25.30;19.60;;;;;1.60;75.30;100316.02;464659;117;383753;-78
2021/03/08 04:26:57;;;;;;;;;28.20;23.90;;;;;1.60;75.30;100316.02;464640;116;390881;-78
2021/03/08 04:28:02;;;;;;;;;32.10;28.20;;;;;1.59;75.58;100324.82;470674;116;383477;-79
2021/03/08 04:29:06;;;;;;;;;28.00;25.40;;;;;1.55;75.69;100320.62;470477;116;384535;-77
2021/03/08 04:30:13;;;;;;;;;28.80;24.20;;;;;1.55;75.69;100320.62;470464;116;383378;-77
2021/03/08 04:31:17;;;;;;;;;29.30;25.90;;;;;1.60;75.40;100318.64;470416;116;392477;-77
2021/03/08 04:32:21;;;;;;;;;25.70;24.10;;;;;1.56;75.54;100315.30;470459;116;383284;-78
2021/03/08 04:33:25;;;;;;;;;31.20;26.20;;;;;1.56;75.54;100315.30;470694;116;382977;-76
2021/03/08 04:34:29;;;;;;;;;29.50;23.60;;;;;1.54;75.56;100317.14;470731;116;388794;-76
2021/03/08 04:35:33;;;;;;;;;33.70;26.90;;;;;1.55;75.44;100313.61;470353;116;392309;-75
2021/03/08 04:36:38;;;;;;;;;28.00;26.70;;;;;1.55;75.44;100313.61;470138;116;389262;-79
2021/03/08 04:37:42;;;;;;;;;30.00;26.90;;;;;1.54;75.49;100309.28;464429;117;383920;-79
2021/03/08 04:38:46;;;;;;;;;30.00;25.20;;;;;1.58;75.30;100315.24;464995;117;383300;-80
2021/03/08 04:39:51;;;;;;;;;24.70;23.20;;;;;1.55;75.45;100312.75;470701;116;383235;-78
2021/03/08 04:40:55;;;;;;;;;25.90;22.00;;;;;1.55;75.45;100312.75;470210;116;382687;-76
2021/03/08 04:41:59;;;;;;;;;29.20;24.00;;;;;1.59;75.24;100315.19;470637;116;386392;-76
2021/03/08 04:43:04;;;;;;;;;32.70;26.80;;;;;1.64;74.66;100320.22;470738;116;385371;-78
2021/03/08 04:44:09;;;;;;;;;28.10;23.10;;;;;1.67;74.71;100311.36;470443;116;383245;-78
2021/03/08 04:45:15;;;;;;;;;31.30;22.20;;;;;1.69;74.53;100302.53;470209;116;383651;-78
2021/03/08 04:46:20;;;;;;;;;29.90;25.50;;;;;1.72;73.93;100305.02;470511;115;384467;-77
2021/03/08 04:47:23;;;;;;;;;20.80;19.60;;;;;1.72;73.93;100305.02;470796;116;382908;-78
2021/03/08 04:48:28;;;;;;;;;26.00;19.70;;;;;1.72;73.88;100299.78;470265;116;382689;-77
2021/03/08 04:49:32;;;;;;;;;23.80;22.20;;;;;1.67;74.06;100309.59;470734;116;380740;-77
2021/03/08 04:50:38;;;;;;;;;26.70;24.20;;;;;1.67;74.12;100306.97;470081;116;384948;-77
2021/03/08 04:51:42;;;;;;;;;28.30;23.80;;;;;1.65;73.99;100306.20;470661;116;390280;-77
2021/03/08 04:52:47;;;;;;;;;17.50;13.70;;;;;1.65;73.99;100306.20;470820;116;381163;-79
2021/03/08 04:53:51;;;;;;;;;27.20;23.80;;;;;1.63;74.01;100299.33;470464;116;383140;-81
2021/03/08 04:54:55;;;;;;;;;26.40;24.00;;;;;1.57;74.33;100295.18;470750;116;382595;-80
2021/03/08 04:55:59;;;;;;;;;27.70;25.30;;;;;1.59;74.07;100301.23;470662;116;389678;-80
2021/03/08 04:57:03;;;;;;;;;35.10;27.40;;;;;1.58;74.16;100296.89;470018;116;384616;-79
2021/03/08 04:58:07;;;;;;;;;31.00;26.90;;;;;1.58;74.16;100296.89;470527;116;383473;-79